sensor_id;sensor_type;location;lat;lon;timestamp;P1;durP1;ratioP1;P2;durP2;ratioP2
66093;SDS011;52876;49.394;10.892;2022-12-18T00:01:35;138.90;;;54.67;;
66093;SDS011;52876;49.394;10.892;2022-12-18T00:04:03;99.40;;;48.42;;
66093;SDS011;52876;49.394;10.892;2022-12-18T00:06:32;122.57;;;51.08;;
66093;SDS011;52876;49.394;10.892;2022-12-18T00:08:59;107.28;;;53.17;;
66093;SDS011;52876;49.394;10.892;2022-12-18T00:11:28;91.28;;;33.97;;
66093;SDS011;52876;49.394;10.892;2022-12-18T00:13:55;80.78;;;40.92;;
66093;SDS011;52876;49.394;10.892;2022-12-18T00:16:24;115.28;;;45.20;;
66093;SDS011;52876;49.394;10.892;2022-12-18T00:18:51;59.40;;;21.35;;
66093;SDS011;52876;49.394;10.892;2022-12-18T00:21:20;63.58;;;19.13;;
66093;SDS011;52876;49.394;10.892;2022-12-18T00:23:47;78.20;;;32.20;;
66093;SDS011;52876;49.394;10.892;2022-12-18T00:26:14;48.30;;;17.75;;
66093;SDS011;52876;49.394;10.892;2022-12-18T00:28:40;81.03;;;38.35;;
66093;SDS011;52876;49.394;10.892;2022-12-18T00:31:08;83.97;;;43.75;;
66093;SDS011;52876;49.394;10.892;2022-12-18T00:33:35;91.40;;;44.63;;
66093;SDS011;52876;49.394;10.892;2022-12-18T00:36:02;77.00;;;42.70;;
66093;SDS011;52876;49.394;10.892;2022-12-18T00:38:30;88.15;;;44.72;;
66093;SDS011;52876;49.394;10.892;2022-12-18T00:40:55;82.43;;;42.10;;
66093;SDS011;52876;49.394;10.892;2022-12-18T00:43:21;87.15;;;45.13;;
66093;SDS011;52876;49.394;10.892;2022-12-18T00:45:48;82.80;;;43.40;;
66093;SDS011;52876;49.394;10.892;2022-12-18T00:48:14;75.13;;;41.88;;
66093;SDS011;52876;49.394;10.892;2022-12-18T00:50:42;88.82;;;41.78;;
66093;SDS011;52876;49.394;10.892;2022-12-18T00:53:08;88.95;;;43.10;;
66093;SDS011;52876;49.394;10.892;2022-12-18T00:55:35;98.07;;;48.67;;
66093;SDS011;52876;49.394;10.892;2022-12-18T00:58:02;82.30;;;40.00;;
66093;SDS011;52876;49.394;10.892;2022-12-18T01:00:30;84.07;;;41.78;;
66093;SDS011;52876;49.394;10.892;2022-12-18T01:02:56;83.15;;;42.53;;
66093;SDS011;52876;49.394;10.892;2022-12-18T01:05:23;73.63;;;39.90;;
66093;SDS011;52876;49.394;10.892;2022-12-18T01:07:50;74.82;;;41.28;;
66093;SDS011;52876;49.394;10.892;2022-12-18T01:10:16;70.07;;;37.50;;
66093;SDS011;52876;49.394;10.892;2022-12-18T01:12:45;78.18;;;41.03;;
66093;SDS011;52876;49.394;10.892;2022-12-18T01:15:11;78.53;;;41.55;;
66093;SDS011;52876;49.394;10.892;2022-12-18T01:17:39;76.13;;;40.83;;
66093;SDS011;52876;49.394;10.892;2022-12-18T01:20:05;72.80;;;38.28;;
66093;SDS011;52876;49.394;10.892;2022-12-18T01:22:33;93.38;;;42.38;;
66093;SDS011;52876;49.394;10.892;2022-12-18T01:25:00;86.65;;;40.67;;
66093;SDS011;52876;49.394;10.892;2022-12-18T01:27:27;75.88;;;36.58;;
66093;SDS011;52876;49.394;10.892;2022-12-18T01:29:55;79.32;;;38.58;;
66093;SDS011;52876;49.394;10.892;2022-12-18T01:32:21;94.13;;;44.08;;
66093;SDS011;52876;49.394;10.892;2022-12-18T01:34:47;83.07;;;36.47;;
66093;SDS011;52876;49.394;10.892;2022-12-18T01:37:14;85.70;;;39.50;;
66093;SDS011;52876;49.394;10.892;2022-12-18T01:39:41;79.35;;;38.13;;
66093;SDS011;52876;49.394;10.892;2022-12-18T01:42:09;73.13;;;36.10;;
66093;SDS011;52876;49.394;10.892;2022-12-18T01:44:50;82.75;;;40.53;;
66093;SDS011;52876;49.394;10.892;2022-12-18T01:47:20;89.30;;;40.75;;
66093;SDS011;52876;49.394;10.892;2022-12-18T01:49:46;89.50;;;37.13;;
66093;SDS011;52876;49.394;10.892;2022-12-18T01:52:14;98.00;;;38.88;;
66093;SDS011;52876;49.394;10.892;2022-12-18T01:54:41;92.25;;;42.55;;
66093;SDS011;52876;49.394;10.892;2022-12-18T01:57:08;80.47;;;38.92;;
66093;SDS011;52876;49.394;10.892;2022-12-18T01:59:34;123.88;;;42.17;;
66093;SDS011;52876;49.394;10.892;2022-12-18T02:02:01;87.03;;;40.30;;
66093;SDS011;52876;49.394;10.892;2022-12-18T02:04:29;116.47;;;43.85;;
66093;SDS011;52876;49.394;10.892;2022-12-18T02:06:55;86.47;;;39.58;;
66093;SDS011;52876;49.394;10.892;2022-12-18T02:09:28;102.03;;;41.38;;
66093;SDS011;52876;49.394;10.892;2022-12-18T02:11:58;85.18;;;37.70;;
66093;SDS011;52876;49.394;10.892;2022-12-18T02:14:31;80.93;;;39.15;;
66093;SDS011;52876;49.394;10.892;2022-12-18T02:17:03;89.13;;;38.08;;
66093;SDS011;52876;49.394;10.892;2022-12-18T02:19:39;82.82;;;40.70;;
66093;SDS011;52876;49.394;10.892;2022-12-18T02:22:20;79.00;;;38.70;;
66093;SDS011;52876;49.394;10.892;2022-12-18T02:24:53;88.65;;;39.13;;
66093;SDS011;52876;49.394;10.892;2022-12-18T02:27:21;109.47;;;44.25;;
66093;SDS011;52876;49.394;10.892;2022-12-18T02:29:48;95.53;;;40.80;;
66093;SDS011;52876;49.394;10.892;2022-12-18T02:32:18;102.72;;;40.30;;
66093;SDS011;52876;49.394;10.892;2022-12-18T02:34:45;94.63;;;39.00;;
66093;SDS011;52876;49.394;10.892;2022-12-18T02:37:14;98.78;;;40.20;;
66093;SDS011;52876;49.394;10.892;2022-12-18T02:39:42;102.50;;;42.65;;
66093;SDS011;52876;49.394;10.892;2022-12-18T02:42:09;98.38;;;40.22;;
66093;SDS011;52876;49.394;10.892;2022-12-18T02:44:42;100.38;;;42.78;;
66093;SDS011;52876;49.394;10.892;2022-12-18T02:47:09;100.15;;;41.63;;
66093;SDS011;52876;49.394;10.892;2022-12-18T02:49:36;111.50;;;44.10;;
66093;SDS011;52876;49.394;10.892;2022-12-18T02:52:07;102.07;;;41.40;;
66093;SDS011;52876;49.394;10.892;2022-12-18T02:54:46;89.95;;;42.05;;
66093;SDS011;52876;49.394;10.892;2022-12-18T02:57:20;80.72;;;37.53;;
66093;SDS011;52876;49.394;10.892;2022-12-18T02:59:58;96.93;;;36.22;;
66093;SDS011;52876;49.394;10.892;2022-12-18T03:02:33;81.93;;;38.47;;
66093;SDS011;52876;49.394;10.892;2022-12-18T03:05:04;79.70;;;35.35;;
66093;SDS011;52876;49.394;10.892;2022-12-18T03:07:40;71.30;;;32.85;;
66093;SDS011;52876;49.394;10.892;2022-12-18T03:10:13;80.57;;;35.20;;
66093;SDS011;52876;49.394;10.892;2022-12-18T03:12:44;79.15;;;35.83;;
66093;SDS011;52876;49.394;10.892;2022-12-18T03:15:16;81.90;;;35.13;;
66093;SDS011;52876;49.394;10.892;2022-12-18T03:17:46;72.28;;;35.55;;
66093;SDS011;52876;49.394;10.892;2022-12-18T03:20:19;68.30;;;33.13;;
66093;SDS011;52876;49.394;10.892;2022-12-18T03:22:50;77.72;;;35.80;;
66093;SDS011;52876;49.394;10.892;2022-12-18T03:25:22;71.60;;;36.25;;
66093;SDS011;52876;49.394;10.892;2022-12-18T03:27:52;74.88;;;33.70;;
66093;SDS011;52876;49.394;10.892;2022-12-18T03:30:23;77.78;;;34.42;;
66093;SDS011;52876;49.394;10.892;2022-12-18T03:32:51;75.80;;;32.78;;
66093;SDS011;52876;49.394;10.892;2022-12-18T03:35:24;67.40;;;30.45;;
66093;SDS011;52876;49.394;10.892;2022-12-18T03:37:53;74.03;;;33.83;;
66093;SDS011;52876;49.394;10.892;2022-12-18T03:40:20;75.97;;;34.25;;
66093;SDS011;52876;49.394;10.892;2022-12-18T03:42:52;82.55;;;36.38;;
66093;SDS011;52876;49.394;10.892;2022-12-18T03:45:27;88.88;;;37.33;;
66093;SDS011;52876;49.394;10.892;2022-12-18T03:47:58;80.10;;;33.50;;
66093;SDS011;52876;49.394;10.892;2022-12-18T03:50:30;76.65;;;34.00;;
66093;SDS011;52876;49.394;10.892;2022-12-18T03:52:57;75.00;;;34.67;;
66093;SDS011;52876;49.394;10.892;2022-12-18T03:55:30;82.72;;;36.80;;
66093;SDS011;52876;49.394;10.892;2022-12-18T03:57:58;82.55;;;32.90;;
66093;SDS011;52876;49.394;10.892;2022-12-18T04:00:27;82.55;;;37.70;;
66093;SDS011;52876;49.394;10.892;2022-12-18T04:02:55;80.85;;;34.13;;
66093;SDS011;52876;49.394;10.892;2022-12-18T04:05:25;86.05;;;34.50;;
66093;SDS011;52876;49.394;10.892;2022-12-18T04:07:51;93.72;;;35.35;;
66093;SDS011;52876;49.394;10.892;2022-12-18T04:10:19;109.20;;;39.70;;
66093;SDS011;52876;49.394;10.892;2022-12-18T04:12:47;92.53;;;34.08;;
66093;SDS011;52876;49.394;10.892;2022-12-18T04:15:13;82.15;;;31.20;;
66093;SDS011;52876;49.394;10.892;2022-12-18T04:17:45;92.40;;;29.40;;
66093;SDS011;52876;49.394;10.892;2022-12-18T04:20:14;84.30;;;32.60;;
66093;SDS011;52876;49.394;10.892;2022-12-18T04:22:41;82.47;;;30.98;;
66093;SDS011;52876;49.394;10.892;2022-12-18T04:25:08;75.18;;;31.70;;
66093;SDS011;52876;49.394;10.892;2022-12-18T04:27:36;88.53;;;36.42;;
66093;SDS011;52876;49.394;10.892;2022-12-18T04:30:03;81.13;;;32.60;;
66093;SDS011;52876;49.394;10.892;2022-12-18T04:32:31;84.53;;;35.10;;
66093;SDS011;52876;49.394;10.892;2022-12-18T04:35:00;72.05;;;31.75;;
66093;SDS011;52876;49.394;10.892;2022-12-18T04:37:27;74.18;;;34.63;;
66093;SDS011;52876;49.394;10.892;2022-12-18T04:39:53;66.30;;;29.20;;
66093;SDS011;52876;49.394;10.892;2022-12-18T04:42:21;82.38;;;36.03;;
66093;SDS011;52876;49.394;10.892;2022-12-18T04:44:47;69.32;;;33.63;;
66093;SDS011;52876;49.394;10.892;2022-12-18T04:47:15;77.88;;;31.80;;
66093;SDS011;52876;49.394;10.892;2022-12-18T04:49:41;100.55;;;37.50;;
66093;SDS011;52876;49.394;10.892;2022-12-18T04:52:08;78.30;;;31.52;;
66093;SDS011;52876;49.394;10.892;2022-12-18T04:54:34;93.20;;;38.95;;
66093;SDS011;52876;49.394;10.892;2022-12-18T04:57:00;99.03;;;35.92;;
66093;SDS011;52876;49.394;10.892;2022-12-18T04:59:26;94.55;;;35.20;;
66093;SDS011;52876;49.394;10.892;2022-12-18T05:01:54;71.18;;;30.27;;
66093;SDS011;52876;49.394;10.892;2022-12-18T05:04:20;63.90;;;31.42;;
66093;SDS011;52876;49.394;10.892;2022-12-18T05:06:47;69.20;;;32.25;;
66093;SDS011;52876;49.394;10.892;2022-12-18T05:09:15;65.18;;;30.02;;
66093;SDS011;52876;49.394;10.892;2022-12-18T05:11:42;61.22;;;31.27;;
66093;SDS011;52876;49.394;10.892;2022-12-18T05:14:08;65.05;;;34.53;;
66093;SDS011;52876;49.394;10.892;2022-12-18T05:16:34;82.78;;;34.33;;
66093;SDS011;52876;49.394;10.892;2022-12-18T05:19:01;67.13;;;31.90;;
66093;SDS011;52876;49.394;10.892;2022-12-18T05:21:28;76.78;;;31.63;;
66093;SDS011;52876;49.394;10.892;2022-12-18T05:23:54;72.95;;;34.15;;
66093;SDS011;52876;49.394;10.892;2022-12-18T05:26:23;75.57;;;32.33;;
66093;SDS011;52876;49.394;10.892;2022-12-18T05:28:49;67.88;;;34.30;;
66093;SDS011;52876;49.394;10.892;2022-12-18T05:31:17;70.60;;;32.15;;
66093;SDS011;52876;49.394;10.892;2022-12-18T05:33:43;62.28;;;28.65;;
66093;SDS011;52876;49.394;10.892;2022-12-18T05:36:10;61.25;;;29.20;;
66093;SDS011;52876;49.394;10.892;2022-12-18T05:38:37;61.78;;;29.83;;
66093;SDS011;52876;49.394;10.892;2022-12-18T05:41:04;54.83;;;27.20;;
66093;SDS011;52876;49.394;10.892;2022-12-18T05:43:33;52.17;;;27.17;;
66093;SDS011;52876;49.394;10.892;2022-12-18T05:46:04;49.75;;;25.15;;
66093;SDS011;52876;49.394;10.892;2022-12-18T05:48:31;60.17;;;28.80;;
66093;SDS011;52876;49.394;10.892;2022-12-18T05:51:02;50.97;;;25.92;;
66093;SDS011;52876;49.394;10.892;2022-12-18T05:53:28;55.42;;;27.27;;
66093;SDS011;52876;49.394;10.892;2022-12-18T05:55:59;45.47;;;24.17;;
66093;SDS011;52876;49.394;10.892;2022-12-18T05:58:25;44.15;;;24.92;;
66093;SDS011;52876;49.394;10.892;2022-12-18T06:00:54;49.30;;;27.15;;
66093;SDS011;52876;49.394;10.892;2022-12-18T06:03:20;54.15;;;26.10;;
66093;SDS011;52876;49.394;10.892;2022-12-18T06:05:46;55.22;;;27.00;;
66093;SDS011;52876;49.394;10.892;2022-12-18T06:08:12;52.40;;;26.13;;
66093;SDS011;52876;49.394;10.892;2022-12-18T06:10:40;63.90;;;30.75;;
66093;SDS011;52876;49.394;10.892;2022-12-18T06:13:06;52.22;;;26.67;;
66093;SDS011;52876;49.394;10.892;2022-12-18T06:15:35;76.40;;;33.17;;
66093;SDS011;52876;49.394;10.892;2022-12-18T06:18:03;62.45;;;29.15;;
66093;SDS011;52876;49.394;10.892;2022-12-18T06:20:31;88.85;;;31.20;;
66093;SDS011;52876;49.394;10.892;2022-12-18T06:22:57;58.70;;;27.35;;
66093;SDS011;52876;49.394;10.892;2022-12-18T06:25:24;67.25;;;30.63;;
66093;SDS011;52876;49.394;10.892;2022-12-18T06:27:51;75.38;;;33.92;;
66093;SDS011;52876;49.394;10.892;2022-12-18T06:30:17;69.85;;;31.75;;
66093;SDS011;52876;49.394;10.892;2022-12-18T06:32:44;57.50;;;28.00;;
66093;SDS011;52876;49.394;10.892;2022-12-18T06:35:12;73.10;;;31.80;;
66093;SDS011;52876;49.394;10.892;2022-12-18T06:37:39;61.03;;;28.10;;
66093;SDS011;52876;49.394;10.892;2022-12-18T06:40:06;60.17;;;31.35;;
66093;SDS011;52876;49.394;10.892;2022-12-18T06:42:33;72.10;;;32.10;;
66093;SDS011;52876;49.394;10.892;2022-12-18T06:44:59;58.45;;;29.23;;
66093;SDS011;52876;49.394;10.892;2022-12-18T06:47:27;51.25;;;26.60;;
66093;SDS011;52876;49.394;10.892;2022-12-18T06:49:53;50.67;;;24.80;;
66093;SDS011;52876;49.394;10.892;2022-12-18T06:52:22;44.83;;;24.08;;
66093;SDS011;52876;49.394;10.892;2022-12-18T06:54:48;46.30;;;22.20;;
66093;SDS011;52876;49.394;10.892;2022-12-18T06:57:14;42.60;;;22.15;;
66093;SDS011;52876;49.394;10.892;2022-12-18T06:59:40;46.33;;;22.80;;
66093;SDS011;52876;49.394;10.892;2022-12-18T07:02:09;51.08;;;23.23;;
66093;SDS011;52876;49.394;10.892;2022-12-18T07:04:36;45.28;;;22.92;;
66093;SDS011;52876;49.394;10.892;2022-12-18T07:07:04;39.10;;;21.15;;
66093;SDS011;52876;49.394;10.892;2022-12-18T07:09:31;44.15;;;22.77;;
66093;SDS011;52876;49.394;10.892;2022-12-18T07:11:57;41.33;;;20.92;;
66093;SDS011;52876;49.394;10.892;2022-12-18T07:14:23;45.20;;;22.25;;
66093;SDS011;52876;49.394;10.892;2022-12-18T07:16:49;41.95;;;20.80;;
66093;SDS011;52876;49.394;10.892;2022-12-18T07:19:15;40.15;;;20.60;;
66093;SDS011;52876;49.394;10.892;2022-12-18T07:21:43;44.42;;;20.75;;
66093;SDS011;52876;49.394;10.892;2022-12-18T07:24:09;50.75;;;22.92;;
66093;SDS011;52876;49.394;10.892;2022-12-18T07:26:36;42.13;;;20.45;;
66093;SDS011;52876;49.394;10.892;2022-12-18T07:29:02;41.90;;;20.90;;
66093;SDS011;52876;49.394;10.892;2022-12-18T07:31:30;41.38;;;19.08;;
66093;SDS011;52876;49.394;10.892;2022-12-18T07:33:56;39.28;;;18.90;;
66093;SDS011;52876;49.394;10.892;2022-12-18T07:36:24;38.25;;;18.38;;
66093;SDS011;52876;49.394;10.892;2022-12-18T07:38:50;36.28;;;18.00;;
66093;SDS011;52876;49.394;10.892;2022-12-18T07:41:18;41.60;;;19.98;;
66093;SDS011;52876;49.394;10.892;2022-12-18T07:43:45;37.10;;;19.45;;
66093;SDS011;52876;49.394;10.892;2022-12-18T07:46:13;33.83;;;18.17;;
66093;SDS011;52876;49.394;10.892;2022-12-18T07:48:39;40.83;;;21.02;;
66093;SDS011;52876;49.394;10.892;2022-12-18T07:51:05;36.58;;;18.27;;
66093;SDS011;52876;49.394;10.892;2022-12-18T07:53:32;35.53;;;19.00;;
66093;SDS011;52876;49.394;10.892;2022-12-18T07:56:01;34.65;;;18.15;;
66093;SDS011;52876;49.394;10.892;2022-12-18T07:58:28;37.70;;;18.25;;
66093;SDS011;52876;49.394;10.892;2022-12-18T08:01:01;38.45;;;19.65;;
66093;SDS011;52876;49.394;10.892;2022-12-18T08:03:28;40.90;;;19.67;;
66093;SDS011;52876;49.394;10.892;2022-12-18T08:05:57;35.97;;;17.80;;
66093;SDS011;52876;49.394;10.892;2022-12-18T08:08:24;36.88;;;18.00;;
66093;SDS011;52876;49.394;10.892;2022-12-18T08:10:50;44.28;;;21.00;;
66093;SDS011;52876;49.394;10.892;2022-12-18T08:13:15;32.20;;;17.77;;
66093;SDS011;52876;49.394;10.892;2022-12-18T08:15:46;36.50;;;18.65;;
66093;SDS011;52876;49.394;10.892;2022-12-18T08:18:21;35.95;;;19.27;;
66093;SDS011;52876;49.394;10.892;2022-12-18T08:20:49;36.72;;;18.75;;
66093;SDS011;52876;49.394;10.892;2022-12-18T08:23:15;35.70;;;17.55;;
66093;SDS011;52876;49.394;10.892;2022-12-18T08:25:42;39.67;;;19.27;;
66093;SDS011;52876;49.394;10.892;2022-12-18T08:28:08;34.95;;;19.70;;
66093;SDS011;52876;49.394;10.892;2022-12-18T08:30:36;31.95;;;18.77;;
66093;SDS011;52876;49.394;10.892;2022-12-18T08:33:02;33.58;;;18.50;;
66093;SDS011;52876;49.394;10.892;2022-12-18T08:35:29;36.20;;;18.63;;
66093;SDS011;52876;49.394;10.892;2022-12-18T08:37:59;38.35;;;17.98;;
66093;SDS011;52876;49.394;10.892;2022-12-18T08:40:25;35.97;;;18.50;;
66093;SDS011;52876;49.394;10.892;2022-12-18T08:42:51;35.00;;;19.63;;
66093;SDS011;52876;49.394;10.892;2022-12-18T08:45:19;34.40;;;17.75;;
66093;SDS011;52876;49.394;10.892;2022-12-18T08:47:46;33.38;;;17.38;;
66093;SDS011;52876;49.394;10.892;2022-12-18T08:50:12;34.13;;;18.88;;
66093;SDS011;52876;49.394;10.892;2022-12-18T08:52:41;27.10;;;16.17;;
66093;SDS011;52876;49.394;10.892;2022-12-18T08:55:07;30.90;;;16.73;;
66093;SDS011;52876;49.394;10.892;2022-12-18T08:57:35;39.20;;;19.33;;
66093;SDS011;52876;49.394;10.892;2022-12-18T09:00:01;35.08;;;17.98;;
66093;SDS011;52876;49.394;10.892;2022-12-18T09:02:29;34.05;;;20.50;;
66093;SDS011;52876;49.394;10.892;2022-12-18T09:04:55;40.17;;;20.67;;
66093;SDS011;52876;49.394;10.892;2022-12-18T09:07:21;49.72;;;25.10;;
66093;SDS011;52876;49.394;10.892;2022-12-18T09:09:49;41.22;;;22.15;;
66093;SDS011;52876;49.394;10.892;2022-12-18T09:12:16;39.47;;;22.27;;
66093;SDS011;52876;49.394;10.892;2022-12-18T09:14:43;53.85;;;30.90;;
66093;SDS011;52876;49.394;10.892;2022-12-18T09:17:09;73.07;;;38.03;;
66093;SDS011;52876;49.394;10.892;2022-12-18T09:19:35;50.53;;;31.35;;
66093;SDS011;52876;49.394;10.892;2022-12-18T09:22:02;39.72;;;21.95;;
66093;SDS011;52876;49.394;10.892;2022-12-18T09:24:29;45.65;;;23.35;;
66093;SDS011;52876;49.394;10.892;2022-12-18T09:26:56;31.17;;;19.65;;
66093;SDS011;52876;49.394;10.892;2022-12-18T09:29:22;35.83;;;21.58;;
66093;SDS011;52876;49.394;10.892;2022-12-18T09:31:50;43.67;;;24.20;;
66093;SDS011;52876;49.394;10.892;2022-12-18T09:34:15;40.40;;;20.60;;
66093;SDS011;52876;49.394;10.892;2022-12-18T09:36:43;36.35;;;21.80;;
66093;SDS011;52876;49.394;10.892;2022-12-18T09:39:09;35.57;;;19.93;;
66093;SDS011;52876;49.394;10.892;2022-12-18T09:41:44;43.45;;;25.63;;
66093;SDS011;52876;49.394;10.892;2022-12-18T09:44:24;40.83;;;23.88;;
66093;SDS011;52876;49.394;10.892;2022-12-18T09:46:54;39.53;;;24.20;;
66093;SDS011;52876;49.394;10.892;2022-12-18T09:49:29;39.53;;;24.35;;
66093;SDS011;52876;49.394;10.892;2022-12-18T09:51:56;43.00;;;24.05;;
66093;SDS011;52876;49.394;10.892;2022-12-18T09:54:30;44.17;;;23.95;;
66093;SDS011;52876;49.394;10.892;2022-12-18T09:57:01;41.65;;;21.98;;
66093;SDS011;52876;49.394;10.892;2022-12-18T09:59:30;49.88;;;27.45;;
66093;SDS011;52876;49.394;10.892;2022-12-18T10:01:59;29.88;;;17.10;;
66093;SDS011;52876;49.394;10.892;2022-12-18T10:04:25;36.83;;;19.33;;
66093;SDS011;52876;49.394;10.892;2022-12-18T10:06:57;31.65;;;18.20;;
66093;SDS011;52876;49.394;10.892;2022-12-18T10:09:29;37.55;;;20.50;;
66093;SDS011;52876;49.394;10.892;2022-12-18T10:12:01;34.53;;;18.98;;
66093;SDS011;52876;49.394;10.892;2022-12-18T10:14:36;27.63;;;17.10;;
66093;SDS011;52876;49.394;10.892;2022-12-18T10:17:13;30.02;;;18.88;;
66093;SDS011;52876;49.394;10.892;2022-12-18T10:19:47;43.30;;;24.33;;
66093;SDS011;52876;49.394;10.892;2022-12-18T10:22:22;30.52;;;20.38;;
66093;SDS011;52876;49.394;10.892;2022-12-18T10:24:55;29.40;;;16.83;;
66093;SDS011;52876;49.394;10.892;2022-12-18T10:27:28;38.78;;;20.70;;
66093;SDS011;52876;49.394;10.892;2022-12-18T10:29:56;29.90;;;17.70;;
66093;SDS011;52876;49.394;10.892;2022-12-18T10:32:25;35.47;;;22.20;;
66093;SDS011;52876;49.394;10.892;2022-12-18T10:34:53;35.88;;;19.38;;
66093;SDS011;52876;49.394;10.892;2022-12-18T10:37:20;35.60;;;20.17;;
66093;SDS011;52876;49.394;10.892;2022-12-18T10:40:04;31.95;;;18.17;;
66093;SDS011;52876;49.394;10.892;2022-12-18T10:42:33;61.97;;;26.83;;
66093;SDS011;52876;49.394;10.892;2022-12-18T10:45:02;40.22;;;21.63;;
66093;SDS011;52876;49.394;10.892;2022-12-18T10:47:31;47.45;;;23.98;;
66093;SDS011;52876;49.394;10.892;2022-12-18T10:49:59;42.25;;;22.60;;
66093;SDS011;52876;49.394;10.892;2022-12-18T10:52:27;66.40;;;26.70;;
66093;SDS011;52876;49.394;10.892;2022-12-18T10:54:54;56.83;;;26.90;;
66093;SDS011;52876;49.394;10.892;2022-12-18T10:57:32;48.90;;;25.17;;
66093;SDS011;52876;49.394;10.892;2022-12-18T11:00:01;34.28;;;18.77;;
66093;SDS011;52876;49.394;10.892;2022-12-18T11:02:56;34.30;;;19.10;;
66093;SDS011;52876;49.394;10.892;2022-12-18T11:05:23;36.88;;;22.15;;
66093;SDS011;52876;49.394;10.892;2022-12-18T11:07:54;34.08;;;19.55;;
66093;SDS011;52876;49.394;10.892;2022-12-18T11:10:23;33.60;;;21.27;;
66093;SDS011;52876;49.394;10.892;2022-12-18T11:12:53;36.22;;;20.00;;
66093;SDS011;52876;49.394;10.892;2022-12-18T11:15:21;37.70;;;19.60;;
66093;SDS011;52876;49.394;10.892;2022-12-18T11:17:51;33.50;;;18.30;;
66093;SDS011;52876;49.394;10.892;2022-12-18T11:20:21;33.88;;;19.25;;
66093;SDS011;52876;49.394;10.892;2022-12-18T11:22:55;35.28;;;19.42;;
66093;SDS011;52876;49.394;10.892;2022-12-18T11:25:23;32.88;;;19.33;;
66093;SDS011;52876;49.394;10.892;2022-12-18T11:27:49;36.80;;;22.83;;
66093;SDS011;52876;49.394;10.892;2022-12-18T11:30:22;49.78;;;23.00;;
66093;SDS011;52876;49.394;10.892;2022-12-18T11:32:49;51.50;;;23.83;;
66093;SDS011;52876;49.394;10.892;2022-12-18T11:35:19;39.83;;;20.20;;
66093;SDS011;52876;49.394;10.892;2022-12-18T11:37:48;40.92;;;20.92;;
66093;SDS011;52876;49.394;10.892;2022-12-18T11:40:20;50.30;;;26.02;;
66093;SDS011;52876;49.394;10.892;2022-12-18T11:42:52;36.55;;;21.35;;
66093;SDS011;52876;49.394;10.892;2022-12-18T11:45:29;41.35;;;22.33;;
66093;SDS011;52876;49.394;10.892;2022-12-18T11:48:01;35.80;;;19.55;;
66093;SDS011;52876;49.394;10.892;2022-12-18T11:50:32;35.72;;;22.85;;
66093;SDS011;52876;49.394;10.892;2022-12-18T11:53:13;32.38;;;19.15;;
66093;SDS011;52876;49.394;10.892;2022-12-18T11:55:41;36.45;;;21.75;;
66093;SDS011;52876;49.394;10.892;2022-12-18T11:58:16;41.25;;;21.15;;
66093;SDS011;52876;49.394;10.892;2022-12-18T12:00:55;34.60;;;19.42;;
66093;SDS011;52876;49.394;10.892;2022-12-18T12:03:36;40.92;;;22.10;;
66093;SDS011;52876;49.394;10.892;2022-12-18T12:06:15;37.38;;;20.42;;
66093;SDS011;52876;49.394;10.892;2022-12-18T12:08:54;35.67;;;20.40;;
66093;SDS011;52876;49.394;10.892;2022-12-18T12:11:34;37.53;;;21.95;;
66093;SDS011;52876;49.394;10.892;2022-12-18T12:14:28;35.05;;;20.80;;
66093;SDS011;52876;49.394;10.892;2022-12-18T12:17:11;39.07;;;21.50;;
66093;SDS011;52876;49.394;10.892;2022-12-18T12:19:48;30.63;;;18.43;;
66093;SDS011;52876;49.394;10.892;2022-12-18T12:22:24;30.57;;;18.63;;
66093;SDS011;52876;49.394;10.892;2022-12-18T12:24:59;34.80;;;22.10;;
66093;SDS011;52876;49.394;10.892;2022-12-18T12:27:38;35.93;;;23.30;;
66093;SDS011;52876;49.394;10.892;2022-12-18T12:30:11;35.83;;;20.70;;
66093;SDS011;52876;49.394;10.892;2022-12-18T12:32:53;37.60;;;23.15;;
66093;SDS011;52876;49.394;10.892;2022-12-18T12:35:32;32.80;;;21.13;;
66093;SDS011;52876;49.394;10.892;2022-12-18T12:38:09;32.60;;;19.60;;
66093;SDS011;52876;49.394;10.892;2022-12-18T12:40:43;38.60;;;22.07;;
66093;SDS011;52876;49.394;10.892;2022-12-18T12:43:19;29.60;;;18.50;;
66093;SDS011;52876;49.394;10.892;2022-12-18T12:45:50;30.57;;;18.43;;
66093;SDS011;52876;49.394;10.892;2022-12-18T12:48:28;31.33;;;19.97;;
66093;SDS011;52876;49.394;10.892;2022-12-18T12:51:00;22.33;;;15.63;;
66093;SDS011;52876;49.394;10.892;2022-12-18T12:53:34;31.90;;;18.83;;
66093;SDS011;52876;49.394;10.892;2022-12-18T12:56:01;28.67;;;18.33;;
66093;SDS011;52876;49.394;10.892;2022-12-18T12:58:30;28.20;;;18.10;;
66093;SDS011;52876;49.394;10.892;2022-12-18T13:01:11;32.00;;;20.87;;
66093;SDS011;52876;49.394;10.892;2022-12-18T13:03:45;26.50;;;18.50;;
66093;SDS011;52876;49.394;10.892;2022-12-18T13:06:22;66.53;;;36.93;;
66093;SDS011;52876;49.394;10.892;2022-12-18T13:08:56;29.63;;;18.60;;
66093;SDS011;52876;49.394;10.892;2022-12-18T13:11:37;24.23;;;16.17;;
66093;SDS011;52876;49.394;10.892;2022-12-18T13:14:04;30.40;;;18.23;;
66093;SDS011;52876;49.394;10.892;2022-12-18T13:16:30;26.90;;;17.00;;
66093;SDS011;52876;49.394;10.892;2022-12-18T13:18:57;30.63;;;17.20;;
66093;SDS011;52876;49.394;10.892;2022-12-18T13:21:24;28.90;;;18.03;;
66093;SDS011;52876;49.394;10.892;2022-12-18T13:23:52;28.53;;;18.80;;
66093;SDS011;52876;49.394;10.892;2022-12-18T13:26:30;32.27;;;20.77;;
66093;SDS011;52876;49.394;10.892;2022-12-18T13:28:57;41.07;;;26.67;;
66093;SDS011;52876;49.394;10.892;2022-12-18T13:34:34;38.20;;;23.87;;
66093;SDS011;52876;49.394;10.892;2022-12-18T13:40:07;39.30;;;26.33;;
66093;SDS011;52876;49.394;10.892;2022-12-18T13:43:15;34.20;;;21.10;;
66093;SDS011;52876;49.394;10.892;2022-12-18T13:45:58;29.97;;;18.57;;
66093;SDS011;52876;49.394;10.892;2022-12-18T13:48:26;34.63;;;19.85;;
66093;SDS011;52876;49.394;10.892;2022-12-18T13:50:59;30.23;;;19.40;;
66093;SDS011;52876;49.394;10.892;2022-12-18T13:53:27;29.03;;;18.30;;
66093;SDS011;52876;49.394;10.892;2022-12-18T13:55:57;35.27;;;19.97;;
66093;SDS011;52876;49.394;10.892;2022-12-18T13:58:23;35.13;;;19.13;;
66093;SDS011;52876;49.394;10.892;2022-12-18T14:00:50;34.03;;;19.27;;
66093;SDS011;52876;49.394;10.892;2022-12-18T14:03:21;29.90;;;17.60;;
66093;SDS011;52876;49.394;10.892;2022-12-18T14:06:00;29.43;;;18.20;;
66093;SDS011;52876;49.394;10.892;2022-12-18T14:08:30;33.97;;;20.07;;
66093;SDS011;52876;49.394;10.892;2022-12-18T14:11:00;31.53;;;18.57;;
66093;SDS011;52876;49.394;10.892;2022-12-18T14:13:30;29.33;;;16.30;;
66093;SDS011;52876;49.394;10.892;2022-12-18T14:16:00;31.95;;;18.80;;
66093;SDS011;52876;49.394;10.892;2022-12-18T14:18:27;34.90;;;20.23;;
66093;SDS011;52876;49.394;10.892;2022-12-18T14:20:58;35.45;;;19.42;;
66093;SDS011;52876;49.394;10.892;2022-12-18T14:23:28;31.95;;;17.83;;
66093;SDS011;52876;49.394;10.892;2022-12-18T14:25:56;30.77;;;18.90;;
66093;SDS011;52876;49.394;10.892;2022-12-18T14:28:23;32.40;;;19.70;;